createdAt,value
2018-06-28T00:01:13.125Z,18.40
2018-06-28T00:03:42.670Z,18.40
2018-06-28T00:06:12.176Z,18.30
2018-06-28T00:08:45.402Z,18.30
2018-06-28T00:11:13.825Z,18.30
2018-06-28T00:13:42.125Z,18.20
2018-06-28T00:16:10.487Z,18.20
2018-06-28T00:18:38.777Z,18.10
2018-06-28T00:21:07.090Z,18.10
2018-06-28T00:23:35.428Z,18.10
2018-06-28T00:26:04.727Z,18.10
2018-06-28T00:28:33.268Z,18.10
2018-06-28T00:31:01.658Z,18.10
2018-06-28T00:33:30.030Z,17.90
2018-06-28T00:35:58.474Z,17.80
2018-06-28T00:38:26.809Z,17.90
2018-06-28T00:40:55.162Z,17.90
2018-06-28T00:43:23.681Z,17.80
2018-06-28T00:45:52.030Z,17.80
2018-06-28T00:48:20.382Z,17.70
2018-06-28T00:50:48.716Z,17.60
2018-06-28T00:53:18.636Z,17.60
2018-06-28T00:55:48.171Z,17.70
2018-06-28T00:58:16.466Z,17.70
2018-06-28T01:00:44.814Z,17.70
2018-06-28T01:03:13.134Z,17.60
2018-06-28T01:05:41.445Z,17.60
2018-06-28T01:08:09.793Z,17.70
2018-06-28T01:10:42.205Z,17.80
2018-06-28T01:15:39.246Z,17.50
2018-06-28T01:18:09.670Z,17.40
2018-06-28T01:20:38.739Z,17.40
2018-06-28T01:23:08.241Z,17.60
2018-06-28T01:25:36.599Z,17.30
2018-06-28T01:28:04.994Z,17.40
2018-06-28T01:30:34.313Z,17.40
2018-06-28T01:33:03.310Z,17.30
2018-06-28T01:35:31.737Z,17.20
2018-06-28T01:40:28.993Z,17.20
2018-06-28T01:43:08.610Z,17.20
2018-06-28T01:45:36.901Z,17.10
2018-06-28T01:48:05.239Z,17.20
2018-06-28T01:50:33.588Z,17.20
2018-06-28T01:53:01.967Z,17.00
2018-06-28T01:55:30.293Z,17.00
2018-06-28T01:57:58.673Z,17.00
2018-06-28T02:00:26.989Z,17.00
2018-06-28T02:02:59.429Z,16.90
2018-06-28T02:05:27.775Z,16.90
2018-06-28T02:07:56.197Z,16.90
2018-06-28T02:10:24.498Z,16.90
2018-06-28T02:12:52.794Z,16.90
2018-06-28T02:15:21.169Z,16.90
2018-06-28T02:17:51.377Z,16.80
2018-06-28T02:20:19.682Z,16.80
2018-06-28T02:22:47.998Z,16.80
2018-06-28T02:25:16.350Z,16.70
2018-06-28T02:27:44.682Z,16.80
2018-06-28T02:30:13.022Z,16.70
2018-06-28T02:32:41.317Z,16.70
2018-06-28T02:35:09.673Z,16.70
2018-06-28T02:37:38.014Z,16.70
2018-06-28T02:40:06.486Z,16.60
2018-06-28T02:42:34.806Z,16.60
2018-06-28T02:45:03.658Z,16.50
2018-06-28T02:47:32.514Z,16.50
2018-06-28T02:50:00.990Z,16.50
2018-06-28T02:54:58.206Z,16.50
2018-06-28T02:57:26.593Z,16.50
2018-06-28T02:59:54.884Z,16.40
2018-06-28T03:02:23.769Z,16.50
2018-06-28T03:04:52.945Z,16.40
2018-06-28T03:07:21.567Z,16.40
2018-06-28T03:09:50.867Z,16.30
2018-06-28T03:12:19.265Z,16.30
2018-06-28T03:14:47.546Z,16.20
2018-06-28T03:17:15.869Z,16.20
2018-06-28T03:19:44.694Z,16.30
2018-06-28T03:22:12.995Z,16.20
2018-06-28T03:24:41.569Z,16.20
2018-06-28T03:27:09.877Z,16.20
2018-06-28T03:29:38.265Z,16.10
2018-06-28T03:32:06.774Z,16.10
2018-06-28T03:34:35.050Z,16.10
2018-06-28T03:37:03.832Z,16.20
2018-06-28T03:39:33.069Z,16.10
2018-06-28T03:42:01.354Z,16.00
2018-06-28T03:44:30.314Z,16.00
2018-06-28T03:46:58.673Z,16.00
2018-06-28T03:49:27.052Z,16.00
2018-06-28T03:51:55.817Z,16.00
2018-06-28T03:54:24.222Z,15.90
2018-06-28T03:56:53.857Z,15.90
2018-06-28T03:59:23.146Z,16.00
2018-06-28T04:01:52.058Z,15.90
2018-06-28T04:04:20.329Z,15.90
2018-06-28T04:06:48.634Z,15.90
2018-06-28T04:09:16.965Z,16.00
2018-06-28T04:11:45.306Z,16.00
2018-06-28T04:14:13.600Z,15.90
2018-06-28T04:16:41.964Z,16.00
2018-06-28T04:19:10.230Z,16.00
2018-06-28T04:21:38.774Z,16.00
2018-06-28T04:24:07.069Z,15.90
2018-06-28T04:26:35.356Z,15.90
2018-06-28T04:29:03.696Z,16.00
2018-06-28T04:31:33.513Z,16.00
2018-06-28T04:34:01.802Z,16.00
2018-06-28T04:36:30.105Z,16.00
2018-06-28T04:38:58.498Z,16.10
2018-06-28T04:44:03.425Z,16.20
2018-06-28T04:46:31.758Z,16.20
2018-06-28T04:49:00.302Z,16.30
2018-06-28T04:51:29.914Z,16.30
2018-06-28T04:53:58.289Z,16.40
2018-06-28T04:56:26.573Z,16.40
2018-06-28T04:58:54.999Z,16.50
2018-06-28T05:01:23.361Z,16.50
2018-06-28T05:03:52.458Z,16.50
2018-06-28T05:08:48.934Z,16.60
2018-06-28T05:11:17.232Z,16.70
2018-06-28T05:13:45.551Z,16.80
2018-06-28T05:16:13.949Z,16.90
2018-06-28T05:18:42.290Z,16.90
2018-06-28T05:21:11.221Z,16.90
2018-06-28T05:23:39.510Z,17.00
2018-06-28T05:28:36.485Z,17.20
2018-06-28T05:31:15.792Z,17.30
2018-06-28T05:33:45.042Z,17.30
2018-06-28T05:36:13.358Z,17.40
2018-06-28T05:38:41.665Z,17.50
2018-06-28T05:41:10.394Z,17.70
2018-06-28T05:43:38.690Z,17.80
2018-06-28T05:46:07.012Z,17.80
2018-06-28T05:51:04.355Z,17.90
2018-06-28T05:53:32.692Z,18.10
2018-06-28T05:56:01.009Z,18.20
2018-06-28T05:58:29.313Z,18.30
2018-06-28T06:00:57.646Z,18.40
2018-06-28T06:03:25.981Z,18.60
2018-06-28T06:05:55.233Z,18.90
2018-06-28T06:08:23.552Z,19.30
2018-06-28T06:10:51.857Z,19.50
2018-06-28T06:13:20.150Z,19.90
2018-06-28T06:15:49.122Z,20.10
2018-06-28T06:18:18.289Z,20.40
2018-06-28T06:23:14.732Z,20.10
2018-06-28T06:25:43.058Z,20.00
2018-06-28T06:28:11.381Z,20.30
2018-06-28T06:30:39.734Z,20.30
2018-06-28T06:33:08.070Z,20.40
2018-06-28T06:35:36.352Z,20.30
2018-06-28T06:38:04.857Z,20.20
2018-06-28T06:40:33.242Z,20.50
2018-06-28T06:43:01.686Z,20.70
2018-06-28T06:45:30.034Z,20.50
2018-06-28T06:47:58.469Z,20.80
2018-06-28T06:50:27.147Z,20.70
2018-06-28T06:52:56.350Z,20.90
2018-06-28T06:55:24.658Z,21.30
2018-06-28T06:57:53.003Z,21.40
2018-06-28T07:00:21.426Z,21.70
2018-06-28T07:05:17.746Z,22.00
2018-06-28T07:07:46.307Z,22.10
2018-06-28T07:10:14.974Z,22.10
2018-06-28T07:12:43.491Z,22.10
2018-06-28T07:15:11.705Z,22.50
2018-06-28T07:17:40.039Z,22.60
2018-06-28T07:20:08.341Z,22.60
2018-06-28T07:22:36.670Z,22.30
2018-06-28T07:25:05.126Z,22.60
2018-06-28T07:30:01.514Z,23.00
2018-06-28T07:32:29.857Z,23.20
2018-06-28T07:34:58.179Z,23.50
2018-06-28T07:37:27.219Z,23.30
2018-06-28T07:39:55.674Z,23.30
2018-06-28T07:42:23.970Z,23.50
2018-06-28T07:44:53.143Z,23.80
2018-06-28T07:47:21.478Z,23.90
2018-06-28T07:49:49.810Z,24.20
2018-06-28T07:52:18.202Z,24.10
2018-06-28T07:54:46.893Z,24.20
2018-06-28T07:57:15.221Z,23.90
2018-06-28T07:59:43.542Z,23.90
2018-06-28T08:02:11.861Z,24.10
2018-06-28T08:04:40.137Z,24.10
2018-06-28T08:07:08.463Z,23.80
2018-06-28T08:09:36.795Z,24.10
2018-06-28T08:12:05.237Z,24.60
2018-06-28T08:14:33.613Z,24.60
2018-06-28T08:17:02.534Z,24.60
2018-06-28T08:19:31.595Z,24.80
2018-06-28T08:21:59.938Z,24.90
2018-06-28T08:24:28.299Z,25.00
2018-06-28T08:26:56.668Z,25.00
2018-06-28T08:29:24.986Z,25.30
2018-06-28T08:31:53.785Z,25.50
2018-06-28T08:34:22.154Z,25.40
2018-06-28T08:36:50.621Z,25.40
2018-06-28T08:39:19.545Z,25.50
2018-06-28T08:41:47.837Z,25.30
2018-06-28T08:44:16.747Z,25.70
2018-06-28T08:46:45.146Z,25.60
2018-06-28T08:49:13.442Z,25.80
2018-06-28T08:51:41.729Z,26.40
2018-06-28T08:54:10.025Z,26.50
2018-06-28T08:56:38.813Z,26.50
2018-06-28T08:59:07.114Z,26.40
2018-06-28T09:01:36.458Z,26.60
2018-06-28T09:04:04.991Z,26.80
2018-06-28T09:06:33.318Z,27.10
2018-06-28T09:09:01.658Z,27.10
2018-06-28T09:11:29.949Z,27.10
2018-06-28T09:13:59.138Z,27.30
2018-06-28T09:16:27.449Z,27.20
2018-06-28T09:18:55.772Z,27.20
2018-06-28T09:21:24.146Z,27.40
2018-06-28T09:23:52.574Z,27.30
2018-06-28T09:26:20.875Z,27.30
2018-06-28T09:28:49.406Z,27.60
2018-06-28T09:31:18.221Z,28.10
2018-06-28T09:33:46.534Z,27.40
2018-06-28T09:36:14.825Z,27.80
2018-06-28T09:38:43.109Z,28.30
2018-06-28T09:41:11.398Z,28.60
2018-06-28T09:43:39.703Z,28.70
2018-06-28T09:46:08.012Z,27.90
2018-06-28T09:48:36.420Z,27.80
2018-06-28T09:51:04.733Z,27.20
2018-06-28T09:53:33.086Z,27.00
2018-06-28T09:56:01.421Z,26.80
2018-06-28T09:58:29.769Z,27.50
2018-06-28T10:00:58.186Z,28.30
2018-06-28T10:03:26.582Z,28.50
2018-06-28T10:05:54.954Z,28.20
2018-06-28T10:08:23.404Z,27.60
2018-06-28T10:10:51.719Z,26.90
2018-06-28T10:13:20.080Z,27.00
2018-06-28T10:15:49.945Z,27.80
2018-06-28T10:18:18.329Z,28.70
2018-06-28T10:20:46.650Z,27.70
2018-06-28T10:23:14.958Z,27.50
2018-06-28T10:25:43.318Z,28.50
2018-06-28T10:28:11.613Z,28.00
2018-06-28T10:30:39.900Z,28.60
2018-06-28T10:33:08.337Z,28.80
2018-06-28T10:35:36.662Z,28.40
2018-06-28T10:38:05.061Z,28.00
2018-06-28T10:40:34.146Z,28.70
2018-06-28T10:43:02.502Z,29.30
2018-06-28T10:45:31.168Z,29.00
2018-06-28T10:48:01.097Z,28.50
2018-06-28T10:50:29.644Z,28.40
2018-06-28T10:52:57.940Z,29.00
2018-06-28T10:55:26.273Z,29.20
2018-06-28T10:57:54.589Z,29.20
2018-06-28T11:00:22.897Z,29.20
2018-06-28T11:02:53.519Z,29.80
2018-06-28T11:05:21.833Z,30.30
2018-06-28T11:07:50.170Z,30.20
2018-06-28T11:10:18.531Z,29.90
2018-06-28T11:12:46.858Z,30.10
2018-06-28T11:15:15.893Z,30.10
2018-06-28T11:20:12.521Z,28.30
2018-06-28T11:22:40.944Z,27.80
2018-06-28T11:25:18.765Z,28.10
2018-06-28T11:27:49.678Z,28.50
2018-06-28T11:33:26.347Z,27.80
2018-06-28T11:38:26.977Z,28.10
2018-06-28T11:43:34.753Z,28.90
2018-06-28T11:46:03.110Z,29.60
2018-06-28T11:48:32.165Z,29.60
2018-06-28T11:51:00.590Z,29.10
2018-06-28T11:53:28.923Z,28.70
2018-06-28T11:55:57.209Z,28.10
2018-06-28T11:58:25.509Z,27.60
2018-06-28T12:00:53.823Z,27.70
2018-06-28T12:03:22.209Z,27.90
2018-06-28T12:08:19.470Z,28.90
2018-06-28T12:10:47.767Z,29.40
2018-06-28T12:13:16.175Z,29.50
2018-06-28T12:15:44.516Z,29.40
2018-06-28T12:18:12.829Z,30.10
2018-06-28T12:20:41.161Z,30.00
2018-06-28T12:23:09.627Z,30.60
2018-06-28T12:25:37.966Z,30.50
2018-06-28T12:28:06.320Z,30.10
2018-06-28T12:30:34.733Z,29.40
2018-06-28T12:33:03.250Z,28.80
2018-06-28T12:35:31.698Z,28.80
2018-06-28T12:38:00.797Z,29.60
2018-06-28T12:42:57.118Z,30.80
2018-06-28T12:45:25.421Z,30.70
2018-06-28T12:48:00.225Z,30.80
2018-06-28T12:50:28.737Z,30.20
2018-06-28T12:53:01.130Z,29.40
2018-06-28T12:55:46.094Z,29.40
2018-06-28T12:58:14.421Z,30.00
2018-06-28T13:00:44.036Z,30.80
2018-06-28T13:03:12.317Z,31.00
2018-06-28T13:05:40.629Z,31.10
2018-06-28T13:08:09.014Z,30.40
2018-06-28T13:10:37.286Z,29.60
2018-06-28T13:13:05.805Z,29.10
2018-06-28T13:15:34.063Z,28.70
2018-06-28T13:18:03.030Z,28.70
2018-06-28T13:20:31.354Z,28.90
2018-06-28T13:23:00.507Z,29.30
2018-06-28T13:27:56.914Z,30.60
2018-06-28T13:30:25.566Z,30.60
2018-06-28T13:32:53.925Z,30.50
2018-06-28T13:35:22.331Z,30.30
2018-06-28T13:37:50.691Z,30.00
2018-06-28T13:40:19.006Z,29.70
2018-06-28T13:42:47.331Z,28.90
2018-06-28T13:45:15.661Z,28.80
2018-06-28T13:47:44.006Z,28.80
2018-06-28T13:52:40.853Z,29.90
2018-06-28T13:57:38.071Z,28.50
2018-06-28T14:00:06.361Z,28.00
2018-06-28T14:02:34.965Z,27.70
2018-06-28T14:05:03.318Z,28.10
2018-06-28T14:07:31.617Z,27.60
2018-06-28T14:09:59.914Z,28.20
2018-06-28T14:12:28.745Z,28.90
2018-06-28T14:14:57.713Z,29.70
2018-06-28T14:17:26.977Z,30.70
2018-06-28T14:19:56.961Z,30.90
2018-06-28T14:22:25.293Z,31.00
2018-06-28T14:27:21.837Z,29.50
2018-06-28T14:29:50.130Z,29.40
2018-06-28T14:34:47.057Z,30.00
2018-06-28T14:37:16.250Z,30.20
2018-06-28T14:39:44.544Z,29.80
2018-06-28T14:42:12.993Z,30.50
2018-06-28T14:44:41.301Z,30.70
2018-06-28T14:47:09.729Z,29.60
2018-06-28T14:49:38.159Z,29.30
2018-06-28T14:52:06.790Z,29.80
2018-06-28T14:54:35.143Z,30.10
2018-06-28T14:59:32.442Z,29.90
2018-06-28T15:02:00.770Z,30.40
2018-06-28T15:04:29.162Z,30.80
2018-06-28T15:06:57.613Z,30.40
2018-06-28T15:09:32.227Z,30.10
2018-06-28T15:12:01.320Z,29.50
2018-06-28T15:14:29.624Z,29.30
2018-06-28T15:16:58.407Z,29.80
2018-06-28T15:19:26.745Z,30.00
2018-06-28T15:21:55.170Z,30.20
2018-06-28T15:24:24.293Z,30.30
2018-06-28T15:26:53.985Z,30.10
2018-06-28T15:29:22.294Z,30.10
2018-06-28T15:31:50.642Z,29.70
2018-06-28T15:34:18.987Z,29.30
2018-06-28T15:36:47.505Z,28.90
2018-06-28T15:39:15.921Z,28.60
2018-06-28T15:41:44.250Z,28.60
2018-06-28T15:44:12.537Z,28.30
2018-06-28T15:46:40.897Z,28.10
2018-06-28T15:49:09.250Z,28.00
2018-06-28T15:51:37.618Z,28.10
2018-06-28T15:54:08.705Z,28.20
2018-06-28T15:56:37.033Z,28.50
2018-06-28T15:59:05.485Z,28.50
2018-06-28T16:01:33.886Z,28.40
2018-06-28T16:04:07.966Z,28.20
2018-06-28T16:06:49.515Z,28.30
2018-06-28T16:09:19.830Z,28.30
2018-06-28T16:11:48.281Z,28.10
2018-06-28T16:14:16.745Z,27.90
2018-06-28T16:16:45.158Z,27.70
2018-06-28T16:19:13.670Z,27.70
2018-06-28T16:21:43.059Z,27.80
2018-06-28T16:24:11.578Z,27.70
2018-06-28T16:26:40.762Z,27.60
2018-06-28T16:29:09.045Z,27.50
2018-06-28T16:31:37.318Z,27.30
2018-06-28T16:34:06.123Z,27.30
2018-06-28T16:36:34.473Z,27.30
2018-06-28T16:39:02.799Z,27.00
2018-06-28T16:41:32.609Z,27.00
2018-06-28T16:44:02.620Z,27.10
2018-06-28T16:49:37.749Z,27.00
2018-06-28T16:52:07.244Z,27.00
2018-06-28T16:54:35.515Z,26.80
2018-06-28T16:57:03.861Z,26.70
2018-06-28T16:59:33.150Z,26.70
2018-06-28T17:02:01.501Z,26.70
2018-06-28T17:04:29.901Z,26.70
2018-06-28T17:06:58.154Z,26.80
2018-06-28T17:09:26.457Z,26.60
2018-06-28T17:11:54.789Z,26.60
2018-06-28T17:14:23.074Z,26.60
2018-06-28T17:16:52.884Z,26.50
2018-06-28T17:19:21.171Z,26.60
2018-06-28T17:21:49.473Z,26.50
2018-06-28T17:26:45.893Z,26.40
2018-06-28T17:29:14.278Z,26.30
2018-06-28T17:31:42.941Z,26.20
2018-06-28T17:34:11.249Z,26.10
2018-06-28T17:36:40.836Z,26.20
2018-06-28T17:39:09.605Z,26.00
2018-06-28T17:41:38.074Z,26.10
2018-06-28T17:44:08.016Z,26.10
2018-06-28T17:46:36.772Z,26.20
2018-06-28T17:49:05.257Z,26.10
2018-06-28T17:54:02.154Z,26.00
2018-06-28T17:56:30.612Z,25.90
2018-06-28T17:58:59.573Z,25.90
2018-06-28T18:01:28.069Z,25.70
2018-06-28T18:03:56.518Z,25.70
2018-06-28T18:06:25.177Z,25.60
2018-06-28T18:08:53.783Z,25.60
2018-06-28T18:11:22.464Z,25.40
2018-06-28T18:14:05.124Z,25.30
2018-06-28T18:16:33.913Z,25.30
2018-06-28T18:19:10.133Z,25.30
2018-06-28T18:21:38.619Z,25.20
2018-06-28T18:24:09.640Z,25.20
2018-06-28T18:26:40.125Z,25.10
2018-06-28T18:31:36.750Z,25.00
2018-06-28T18:34:11.356Z,24.90
2018-06-28T18:36:41.287Z,24.90
2018-06-28T18:39:10.143Z,24.90
2018-06-28T18:41:40.819Z,24.80
2018-06-28T18:44:09.157Z,24.70
2018-06-28T18:46:37.518Z,24.70
2018-06-28T18:49:05.892Z,24.70
2018-06-28T18:51:34.241Z,24.70
2018-06-28T18:54:02.621Z,24.60
2018-06-28T18:56:30.978Z,24.50
2018-06-28T18:58:59.921Z,24.40
2018-06-28T19:01:28.428Z,24.40
2018-06-28T19:03:56.982Z,24.30
2018-06-28T19:06:25.523Z,24.20
2018-06-28T19:08:53.905Z,24.10
2018-06-28T19:11:25.158Z,24.20
2018-06-28T19:13:58.916Z,24.10
2018-06-28T19:16:33.597Z,24.00
2018-06-28T19:19:02.633Z,24.00
2018-06-28T19:21:36.425Z,23.90
2018-06-28T19:26:34.126Z,23.80
2018-06-28T19:29:07.956Z,23.70
2018-06-28T19:31:41.642Z,23.70
2018-06-28T19:34:10.153Z,23.60
2018-06-28T19:36:39.638Z,23.40
2018-06-28T19:39:13.825Z,23.30
2018-06-28T19:44:16.409Z,23.20
2018-06-28T19:46:45.729Z,23.20
2018-06-28T19:49:20.249Z,23.20
2018-06-28T19:54:21.991Z,23.00
2018-06-28T19:56:50.289Z,23.00
2018-06-28T19:59:18.631Z,22.90
2018-06-28T20:01:52.784Z,22.80
2018-06-28T20:04:26.535Z,22.80
2018-06-28T20:06:54.869Z,22.70
2018-06-28T20:09:23.177Z,22.60
2018-06-28T20:11:51.577Z,22.60
2018-06-28T20:14:25.264Z,22.60
2018-06-28T20:16:59.033Z,22.60
2018-06-28T20:19:32.693Z,22.40
2018-06-28T20:22:01.996Z,22.40
2018-06-28T20:24:30.417Z,22.20
2018-06-28T20:27:04.342Z,22.20
2018-06-28T20:32:11.461Z,22.20
2018-06-28T20:37:08.951Z,22.10
2018-06-28T20:39:37.313Z,22.00
2018-06-28T20:42:05.623Z,22.10
2018-06-28T20:44:34.906Z,22.00
2018-06-28T20:47:03.537Z,22.00
2018-06-28T20:49:31.959Z,21.90
2018-06-28T20:52:00.301Z,21.80
2018-06-28T20:54:28.673Z,21.80
2018-06-28T20:56:58.941Z,21.80
2018-06-28T21:01:56.408Z,21.60
2018-06-28T21:04:24.782Z,21.60
2018-06-28T21:09:21.125Z,21.50
2018-06-28T21:11:49.505Z,21.50
2018-06-28T21:14:18.349Z,21.40
2018-06-28T21:16:46.702Z,21.40
2018-06-28T21:19:15.014Z,21.30
2018-06-28T21:21:44.127Z,21.30
2018-06-28T21:24:12.479Z,21.20
2018-06-28T21:26:40.866Z,21.10
2018-06-28T21:29:09.212Z,21.20
2018-06-28T21:31:37.626Z,21.10
2018-06-28T21:34:06.417Z,21.00
2018-06-28T21:36:35.782Z,21.00
2018-06-28T21:39:05.918Z,20.90
2018-06-28T21:41:34.303Z,20.90
2018-06-28T21:44:02.666Z,20.80
2018-06-28T21:46:31.073Z,20.80
2018-06-28T21:48:59.425Z,20.80
2018-06-28T21:51:27.738Z,20.70
2018-06-28T21:53:56.053Z,20.70
2018-06-28T21:56:24.367Z,20.60
2018-06-28T21:58:52.673Z,20.60
2018-06-28T22:01:22.033Z,20.60
2018-06-28T22:03:50.425Z,20.50
2018-06-28T22:06:19.815Z,20.40
2018-06-28T22:08:48.134Z,20.30
2018-06-28T22:11:16.430Z,20.40
2018-06-28T22:13:44.807Z,20.30
2018-06-28T22:16:13.150Z,20.20
2018-06-28T22:18:41.568Z,20.20
2018-06-28T22:21:09.913Z,20.20
2018-06-28T22:23:39.813Z,20.10
2018-06-28T22:26:08.229Z,20.10
2018-06-28T22:28:36.553Z,20.00
2018-06-28T22:31:04.914Z,20.00
2018-06-28T22:33:33.227Z,19.90
2018-06-28T22:36:01.546Z,20.00
2018-06-28T22:40:58.479Z,19.90
2018-06-28T22:43:26.834Z,19.80
2018-06-28T22:45:55.551Z,19.70
2018-06-28T22:48:23.908Z,19.70
2018-06-28T22:50:52.245Z,19.70
2018-06-28T22:53:20.580Z,19.60
2018-06-28T22:55:48.909Z,19.50
2018-06-28T22:58:17.238Z,19.60
2018-06-28T23:00:45.805Z,19.40
2018-06-28T23:03:14.115Z,19.40
2018-06-28T23:05:42.493Z,19.40
2018-06-28T23:08:11.570Z,19.30
2018-06-28T23:10:40.705Z,19.20
2018-06-28T23:15:37.190Z,19.20
2018-06-28T23:18:05.667Z,19.10
2018-06-28T23:20:33.986Z,19.10
2018-06-28T23:23:02.389Z,19.10
2018-06-28T23:25:30.716Z,19.00
2018-06-28T23:27:59.069Z,18.90
2018-06-28T23:30:27.442Z,18.80
2018-06-28T23:35:23.915Z,18.80
2018-06-28T23:37:52.258Z,18.70
2018-06-28T23:42:48.649Z,18.70
2018-06-28T23:45:16.988Z,18.70
2018-06-28T23:47:46.004Z,18.50
2018-06-28T23:50:14.358Z,18.50
2018-06-28T23:52:42.749Z,18.50
2018-06-28T23:55:11.100Z,18.40
2018-06-28T23:57:39.465Z,18.30
